Time;durP1;ratioP1;P1;durP2;ratioP2;P2;SDS_P1;SDS_P2;PMS_P1;PMS_P2;Temp;Humidity;BMP_temperature;BMP_pressure;BME280_temperature;BME280_humidity;BME280_pressure;Samples;Min_cycle;Max_cycle;Signal;HPM_P1;HPM_P2
2021/09/28 00:02:05;;;;;;;20.98;9.35;;;10.10;99.90;;;;;;5143111;27;20043;-44
2021/09/28 00:04:35;;;;;;;13.40;8.02;;;10.10;99.90;;;;;;5125444;27;20417;-44
2021/09/28 00:07:04;;;;;;;13.80;6.97;;;10.10;99.90;;;;;;5145896;27;20054;-46
2021/09/28 00:09:30;;;;;;;11.40;7.57;;;10.10;99.90;;;;;;5146020;27;20055;-45
2021/09/28 00:12:02;;;;;;;12.95;8.38;;;10.00;99.90;;;;;;5144009;27;20391;-44
2021/09/28 00:14:29;;;;;;;;;;;10.00;99.90;;;;;;5145962;27;20230;-43
2021/09/28 00:17:00;;;;;;;16.98;9.00;;;10.00;99.90;;;;;;5146169;27;19927;-44
2021/09/28 00:19:27;;;;;;;19.95;10.38;;;10.00;99.90;;;;;;5126038;27;20083;-44
2021/09/28 00:21:56;;;;;;;15.32;9.40;;;10.00;99.90;;;;;;5125860;27;20054;-43
2021/09/28 00:24:22;;;;;;;12.90;7.65;;;10.00;99.90;;;;;;5138994;27;20050;-45
2021/09/28 00:26:54;;;;;;;13.90;9.77;;;9.90;99.90;;;;;;5145944;27;20094;-44
2021/09/28 00:29:23;;;;;;;15.98;10.20;;;9.90;99.90;;;;;;5125568;27;20517;-45
2021/09/28 00:31:49;;;;;;;14.38;10.05;;;9.90;99.90;;;;;;5145553;27;20144;-44
2021/09/28 00:34:21;;;;;;;15.20;10.00;;;9.90;99.90;;;;;;5146417;27;20062;-45
2021/09/28 00:36:50;;;;;;;12.75;7.95;;;9.90;99.90;;;;;;5143240;27;20414;-42
2021/09/28 00:39:22;;;;;;;10.65;9.57;;;9.90;99.90;;;;;;5144856;27;20083;-43
2021/09/28 00:41:51;;;;;;;16.27;9.18;;;9.80;99.90;;;;;;5146403;27;20130;-48
2021/09/28 00:44:35;;;;;;;11.98;10.60;;;9.80;99.90;;;;;;5147618;27;20084;-45
2021/09/28 00:47:05;;;;;;;10.88;8.93;;;9.80;99.90;;;;;;5142603;27;20066;-46
2021/09/28 00:49:34;;;;;;;20.00;12.75;;;9.80;99.90;;;;;;5143859;27;20042;-47
2021/09/28 00:52:04;;;;;;;14.75;12.30;;;9.80;99.90;;;;;;5143771;27;20050;-43
2021/09/28 00:54:37;;;;;;;16.05;14.45;;;9.80;99.90;;;;;;5144427;27;20043;-44
2021/09/28 00:57:11;;;;;;;14.25;11.75;;;9.80;99.90;;;;;;5142820;27;20589;-43
2021/09/28 00:59:39;;;;;;;16.48;12.38;;;9.70;99.90;;;;;;5142943;27;20054;-43
2021/09/28 01:02:13;;;;;;;20.50;12.73;;;9.70;99.90;;;;;;5146551;27;20201;-42
2021/09/28 01:04:43;;;;;;;18.25;13.13;;;9.80;99.90;;;;;;5148199;27;20054;-42
2021/09/28 01:07:15;;;;;;;17.17;12.70;;;9.80;99.90;;;;;;5147856;27;20050;-43
2021/09/28 01:09:44;;;;;;;16.25;12.98;;;9.70;99.90;;;;;;5131080;27;20114;-44
2021/09/28 01:12:11;;;;;;;17.20;12.80;;;9.70;99.90;;;;;;5128331;27;20055;-45
2021/09/28 01:14:42;;;;;;;24.45;15.63;;;9.70;99.90;;;;;;5148300;27;20054;-43
2021/09/28 01:17:13;;;;;;;17.92;13.40;;;9.70;99.90;;;;;;5142969;27;20083;-43
2021/09/28 01:19:45;;;;;;;15.32;13.13;;;9.70;99.90;;;;;;5150071;27;20050;-43
2021/09/28 01:22:16;;;;;;;19.30;14.10;;;9.60;99.90;;;;;;5145091;27;20445;-44
2021/09/28 01:24:50;;;;;;;15.60;11.48;;;9.60;99.90;;;;;;5149783;27;20051;-45
2021/09/28 01:27:21;;;;;;;16.30;14.52;;;9.60;99.90;;;;;;5130278;27;20086;-45
2021/09/28 01:29:50;;;;;;;24.95;16.08;;;9.60;99.90;;;;;;5113550;27;20051;-45
2021/09/28 01:32:19;;;;;;;20.90;14.98;;;9.60;99.90;;;;;;5146996;27;20086;-44
2021/09/28 01:34:49;;;;;;;23.95;17.25;;;9.60;99.90;;;;;;5145418;27;20053;-44
2021/09/28 01:37:19;;;;;;;17.25;15.35;;;9.60;99.90;;;;;;5146837;27;20123;-43
2021/09/28 01:39:45;;;;;;;16.83;14.85;;;9.60;99.90;;;;;;5149012;27;20078;-43
2021/09/28 01:42:12;;;;;;;17.23;14.77;;;9.60;99.90;;;;;;5129107;27;20511;-42
2021/09/28 01:44:44;;;;;;;20.17;14.73;;;9.50;99.90;;;;;;5146356;27;20050;-43
2021/09/28 01:47:15;;;;;;;19.35;14.82;;;9.50;99.90;;;;;;5144802;27;20137;-43
2021/09/28 01:49:42;;;;;;;17.83;13.60;;;9.60;99.90;;;;;;5125058;27;20107;-43
2021/09/28 01:52:14;;;;;;;19.13;14.40;;;9.50;99.90;;;;;;5150120;27;20096;-43
2021/09/28 01:54:40;;;;;;;18.15;15.25;;;9.50;99.90;;;;;;5144850;27;20074;-44
2021/09/28 01:57:14;;;;;;;24.02;17.90;;;9.50;99.90;;;;;;5145004;27;20070;-43
2021/09/28 01:59:44;;;;;;;23.70;17.35;;;9.50;99.90;;;;;;5148022;27;20042;-44
2021/09/28 02:02:13;;;;;;;29.85;18.25;;;9.50;99.90;;;;;;5141466;27;20062;-42
2021/09/28 02:04:41;;;;;;;17.73;15.85;;;9.50;99.90;;;;;;5145434;27;20116;-44
2021/09/28 02:07:16;;;;;;;21.08;17.42;;;9.50;99.90;;;;;;5131392;27;20088;-44
2021/09/28 02:09:45;;;;;;;;;;;9.50;99.90;;;;;;5148449;27;20051;-44
2021/09/28 02:12:20;;;;;;;21.25;18.25;;;9.50;99.90;;;;;;5143904;27;19922;-43
2021/09/28 02:14:49;;;;;;;26.50;17.38;;;9.50;99.90;;;;;;5146259;27;20125;-44
2021/09/28 02:17:22;;;;;;;22.98;18.20;;;9.50;99.90;;;;;;5139519;27;20051;-44
2021/09/28 02:19:53;;;;;;;22.73;18.83;;;9.40;99.90;;;;;;5148262;27;20050;-44
2021/09/28 02:22:23;;;;;;;28.33;20.27;;;9.50;99.90;;;;;;5147392;27;20114;-45
2021/09/28 02:24:50;;;;;;;23.50;18.38;;;9.50;99.90;;;;;;5145557;27;20055;-43
2021/09/28 02:27:19;;;;;;;27.40;21.55;;;9.40;99.90;;;;;;5148031;27;20046;-43
2021/09/28 02:29:53;;;;;;;26.15;19.83;;;9.40;99.90;;;;;;5127984;27;20406;-43
2021/09/28 02:32:22;;;;;;;32.08;22.15;;;9.50;99.90;;;;;;5126930;27;20129;-45
2021/09/28 02:34:51;;;;;;;28.90;22.77;;;9.50;99.90;;;;;;5147368;27;20046;-44
2021/09/28 02:37:18;;;;;;;29.67;22.00;;;9.40;99.90;;;;;;5148181;27;20047;-43
2021/09/28 02:39:44;;;;;;;29.00;21.88;;;9.50;99.90;;;;;;5127936;27;20046;-44
2021/09/28 02:42:11;;;;;;;28.35;21.17;;;9.40;99.90;;;;;;5143257;27;20086;-44
2021/09/28 02:44:38;;;;;;;26.25;21.95;;;9.40;99.90;;;;;;5147017;27;20051;-43
2021/09/28 02:47:08;;;;;;;30.17;23.75;;;9.40;99.90;;;;;;5146695;27;20177;-44
2021/09/28 02:49:38;;;;;;;26.42;21.55;;;9.40;99.90;;;;;;5144837;27;20061;-42
2021/09/28 02:52:11;;;;;;;28.35;20.08;;;9.40;99.90;;;;;;5146698;27;20053;-42
2021/09/28 02:54:43;;;;;;;25.33;20.27;;;9.30;99.90;;;;;;5146423;27;20057;-43
2021/09/28 02:57:13;;;;;;;29.55;23.23;;;9.30;99.90;;;;;;5125408;27;20050;-42
2021/09/28 02:59:42;;;;;;;32.80;24.75;;;9.30;99.90;;;;;;5148073;27;20127;-44
2021/09/28 03:02:15;;;;;;;32.97;20.38;;;9.30;99.90;;;;;;5144059;27;20751;-43
2021/09/28 03:04:41;;;;;;;28.77;20.50;;;9.30;99.90;;;;;;5145520;27;20150;-43
2021/09/28 03:07:08;;;;;;;29.85;21.98;;;9.20;99.90;;;;;;5126133;27;20054;-43
2021/09/28 03:09:37;;;;;;;35.92;23.48;;;9.20;99.90;;;;;;5146602;27;20057;-43
2021/09/28 03:12:04;;;;;;;37.00;24.95;;;9.20;99.90;;;;;;5147885;27;20414;-43
2021/09/28 03:14:30;;;;;;;31.48;22.52;;;9.20;99.90;;;;;;5146102;27;20194;-42
2021/09/28 03:17:05;;;;;;;24.70;21.73;;;9.20;99.90;;;;;;5146065;27;20074;-44
2021/09/28 03:19:32;;;;;;;35.45;24.55;;;9.20;99.90;;;;;;5145695;27;20126;-42
2021/09/28 03:21:58;;;;;;;30.98;25.98;;;9.20;99.90;;;;;;5147101;27;20055;-42
2021/09/28 03:24:27;;;;;;;34.28;24.52;;;9.20;99.90;;;;;;5144895;27;20054;-43
2021/09/28 03:26:56;;;;;;;36.88;25.15;;;9.20;99.90;;;;;;5145012;27;20125;-42
2021/09/28 03:29:25;;;;;;;33.45;23.38;;;9.20;99.90;;;;;;5125308;27;20050;-44
2021/09/28 03:31:51;;;;;;;35.50;24.73;;;9.20;99.90;;;;;;5128562;27;20137;-42
2021/09/28 03:34:23;;;;;;;27.73;21.60;;;9.20;99.90;;;;;;5144727;27;20063;-43
2021/09/28 03:36:50;;;;;;;34.08;26.08;;;9.20;99.90;;;;;;5147928;27;20050;-42
2021/09/28 03:39:18;;;;;;;31.88;23.63;;;9.20;99.90;;;;;;5145860;27;20051;-42
2021/09/28 03:41:48;;;;;;;39.05;25.67;;;9.20;99.90;;;;;;5128228;27;20047;-42
2021/09/28 03:44:15;;;;;;;33.00;23.40;;;9.20;99.90;;;;;;5144616;27;20043;-42
2021/09/28 03:46:44;;;;;;;33.55;24.52;;;9.20;99.90;;;;;;5144117;27;20097;-44
2021/09/28 03:49:13;;;;;;;33.22;22.98;;;9.20;99.90;;;;;;5126906;27;20470;-42
2021/09/28 03:51:40;;;;;;;31.08;23.15;;;9.10;99.90;;;;;;5146039;27;20042;-43
2021/09/28 03:54:09;;;;;;;33.30;22.13;;;9.10;99.90;;;;;;5127088;27;20051;-44
2021/09/28 03:56:41;;;;;;;32.13;22.00;;;9.20;99.90;;;;;;5146094;27;20073;-44
2021/09/28 03:59:13;;;;;;;33.08;23.40;;;9.10;99.90;;;;;;5145163;27;20050;-43
2021/09/28 04:01:40;;;;;;;36.03;23.00;;;9.10;99.90;;;;;;5142974;27;20046;-45
2021/09/28 04:04:15;;;;;;;32.95;24.75;;;9.10;99.90;;;;;;5144286;27;20721;-43
2021/09/28 04:06:42;;;;;;;27.75;21.63;;;9.10;99.90;;;;;;5144420;27;20551;-44
2021/09/28 04:09:11;;;;;;;32.67;23.42;;;9.10;99.90;;;;;;5127470;27;20050;-43
2021/09/28 04:11:43;;;;;;;34.85;23.50;;;9.10;99.90;;;;;;5145377;27;20142;-43
2021/09/28 04:14:11;;;;;;;34.10;24.40;;;9.10;99.90;;;;;;5128069;27;20138;-45
2021/09/28 04:16:40;;;;;;;32.42;24.02;;;9.10;99.90;;;;;;5143451;27;20073;-42
2021/09/28 04:19:06;;;;;;;30.27;22.77;;;9.20;99.90;;;;;;5126580;27;20065;-42
2021/09/28 04:21:42;;;;;;;35.03;23.38;;;9.20;99.90;;;;;;5141507;27;20046;-44
2021/09/28 04:24:10;;;;;;;30.92;23.38;;;9.10;99.90;;;;;;5145630;27;20082;-44
2021/09/28 04:26:41;;;;;;;39.65;26.40;;;9.10;99.90;;;;;;5143377;27;20054;-45
2021/09/28 04:29:07;;;;;;;35.08;23.55;;;9.20;99.90;;;;;;5125351;27;20059;-43
2021/09/28 04:31:39;;;;;;;33.45;24.38;;;9.10;99.90;;;;;;5144698;27;20051;-44
2021/09/28 04:34:11;;;;;;;42.35;27.40;;;9.10;99.90;;;;;;5140260;27;20055;-44
2021/09/28 04:36:43;;;;;;;39.22;25.52;;;9.10;99.90;;;;;;5142004;27;20047;-44
2021/09/28 04:39:17;;;;;;;40.63;23.60;;;9.10;99.90;;;;;;5126825;27;20065;-43
2021/09/28 04:41:50;;;;;;;35.38;25.05;;;9.10;99.90;;;;;;5147300;27;20149;-43
2021/09/28 04:44:16;;;;;;;35.95;25.58;;;9.10;99.90;;;;;;5128819;27;20047;-43
2021/09/28 04:46:45;;;;;;;33.38;25.00;;;9.10;99.90;;;;;;5150798;27;20051;-42
2021/09/28 04:49:11;;;;;;;30.45;20.13;;;9.10;99.90;;;;;;5130605;27;20130;-45
2021/09/28 04:51:41;;;;;;;46.83;26.77;;;9.10;99.90;;;;;;5147732;27;20337;-44
2021/09/28 04:54:16;;;;;;;38.75;24.65;;;9.00;99.90;;;;;;5129520;27;20047;-44
2021/09/28 04:56:48;;;;;;;34.97;23.65;;;9.00;99.90;;;;;;5146220;27;20065;-44
2021/09/28 04:59:23;;;;;;;42.08;26.58;;;9.10;99.90;;;;;;5144263;27;20061;-44
2021/09/28 05:01:49;;;;;;;36.95;24.77;;;9.10;99.90;;;;;;5148992;27;20058;-45
2021/09/28 05:04:18;;;;;;;41.25;26.98;;;9.10;99.90;;;;;;5149664;27;20051;-44
2021/09/28 05:06:45;;;;;;;41.35;25.88;;;9.10;99.90;;;;;;5144826;27;20047;-43
2021/09/28 05:09:17;;;;;;;40.80;24.63;;;9.10;99.90;;;;;;5148096;27;20051;-46
2021/09/28 05:11:46;;;;;;;35.42;24.83;;;9.10;99.90;;;;;;5148490;27;20500;-44
2021/09/28 05:14:16;;;;;;;31.02;22.13;;;9.00;99.90;;;;;;5147670;27;20054;-45
2021/09/28 05:16:45;;;;;;;39.00;25.15;;;9.00;99.90;;;;;;5131008;27;20098;-45
2021/09/28 05:19:12;;;;;;;37.50;26.50;;;9.00;99.90;;;;;;5147599;27;20493;-45
2021/09/28 05:21:39;;;;;;;39.95;24.10;;;9.00;99.90;;;;;;5147895;27;20042;-43
2021/09/28 05:24:08;;;;;;;44.33;24.88;;;9.00;99.90;;;;;;5145951;27;20046;-44
2021/09/28 05:26:37;;;;;;;42.00;27.23;;;9.00;99.90;;;;;;5144906;27;20049;-47
2021/09/28 05:29:08;;;;;;;39.10;27.45;;;9.00;99.90;;;;;;5147851;27;20054;-45
2021/09/28 05:31:42;;;;;;;44.72;26.80;;;9.00;99.90;;;;;;5149246;27;20054;-42
2021/09/28 05:34:23;;;;;;;44.60;27.10;;;9.10;99.90;;;;;;5140795;27;20406;-42
2021/09/28 05:36:55;;;;;;;46.85;28.35;;;9.10;99.90;;;;;;5147295;27;20094;-41
2021/09/28 05:39:24;;;;;;;44.10;26.92;;;9.20;99.90;;;;;;5149035;27;20055;-43
2021/09/28 05:42:04;;;;;;;41.58;27.55;;;9.20;99.90;;;;;;5146983;27;20065;-43
2021/09/28 05:44:41;;;;;;;46.28;26.70;;;9.30;99.90;;;;;;5148737;27;20066;-42
2021/09/28 05:47:17;;;;;;;47.22;28.60;;;9.40;99.90;;;;;;5146299;27;20495;-44
2021/09/28 05:49:52;;;;;;;51.85;28.63;;;9.40;99.90;;;;;;5148199;27;20105;-41
2021/09/28 05:52:26;;;;;;;44.38;27.48;;;9.50;99.90;;;;;;5147693;27;20042;-42
2021/09/28 05:55:03;;;;;;;40.15;26.75;;;9.40;99.90;;;;;;5147699;27;20168;-40
2021/09/28 05:57:38;;;;;;;40.42;26.45;;;9.60;99.90;;;;;;5149402;27;20112;-39
2021/09/28 06:00:18;;;;;;;107.90;91.35;;;9.60;99.90;;;;;;5150503;27;20124;-42
2021/09/28 06:02:50;;;;;;;42.28;26.38;;;9.70;99.90;;;;;;5146742;27;20498;-42
2021/09/28 06:05:25;;;;;;;42.35;26.05;;;9.70;99.90;;;;;;5130862;27;20053;-40
2021/09/28 06:08:03;;;;;;;38.92;25.83;;;9.70;99.90;;;;;;5145858;27;20043;-40
2021/09/28 06:10:38;;;;;;;33.60;24.08;;;9.70;99.90;;;;;;5148551;27;20054;-44
2021/09/28 06:13:13;;;;;;;35.20;24.88;;;9.70;99.90;;;;;;5128645;27;20103;-41
2021/09/28 06:15:46;;;;;;;35.45;25.40;;;9.80;99.90;;;;;;5146413;27;20046;-43
2021/09/28 06:18:23;;;;;;;36.72;23.65;;;9.80;99.90;;;;;;5147743;27;20054;-43
2021/09/28 06:20:54;;;;;;;37.60;24.00;;;9.80;99.90;;;;;;5127115;27;20050;-43
2021/09/28 06:23:26;;;;;;;47.90;30.38;;;9.80;99.90;;;;;;5102979;27;20050;-41
2021/09/28 06:25:54;;;;;;;72.43;55.03;;;9.90;99.90;;;;;;5131142;27;20503;-41
2021/09/28 06:28:31;;;;;;;44.30;29.77;;;9.90;99.90;;;;;;5150244;27;20062;-41
2021/09/28 06:31:00;;;;;;;47.88;33.65;;;10.00;99.90;;;;;;5147402;27;20047;-42
2021/09/28 06:33:32;;;;;;;38.53;23.85;;;10.00;99.90;;;;;;5150120;27;20049;-43
2021/09/28 06:36:06;;;;;;;36.95;27.95;;;10.10;99.90;;;;;;5141936;27;20053;-44
2021/09/28 06:38:39;;;;;;;34.72;23.38;;;10.20;99.90;;;;;;5148458;27;20531;-42
2021/09/28 06:41:11;;;;;;;35.25;24.20;;;10.20;99.90;;;;;;5149103;27;20061;-50
2021/09/28 06:43:42;;;;;;;33.72;22.35;;;10.30;99.90;;;;;;5145908;27;20057;-49
2021/09/28 06:46:09;;;;;;;38.92;24.95;;;10.40;99.90;;;;;;5147219;27;20129;-49
2021/09/28 06:48:43;;;;;;;30.15;20.65;;;10.60;99.90;;;;;;5143334;27;20478;-49
2021/09/28 06:51:14;;;;;;;;;;;10.70;99.90;;;;;;5146605;27;20050;-49
2021/09/28 06:53:45;;;;;;;30.63;19.02;;;10.80;99.90;;;;;;5143235;27;19954;-47
2021/09/28 06:56:18;;;;;;;27.33;16.83;;;11.10;99.90;;;;;;5143765;27;20050;-49
2021/09/28 06:58:47;;;;;;;27.23;15.50;;;11.30;99.90;;;;;;5146086;27;20153;-49
2021/09/28 07:01:16;;;;;;;32.05;21.42;;;11.50;99.90;;;;;;5147902;27;20050;-48
2021/09/28 07:03:48;;;;;;;23.05;12.15;;;11.70;99.90;;;;;;5128935;27;20054;-50
2021/09/28 07:06:21;;;;;;;24.85;14.98;;;11.90;99.90;;;;;;5141506;27;20046;-49
2021/09/28 07:08:50;;;;;;;19.60;12.27;;;12.30;99.90;;;;;;5148420;27;20042;-50
2021/09/28 07:11:22;;;;;;;18.75;11.13;;;12.40;99.90;;;;;;5149127;27;20061;-50
2021/09/28 07:13:51;;;;;;;16.08;9.85;;;12.70;99.90;;;;;;5146770;27;20059;-46
2021/09/28 07:16:21;;;;;;;21.17;12.47;;;13.00;99.90;;;;;;5117071;27;20419;-52
2021/09/28 07:18:50;;;;;;;40.35;31.95;;;13.20;99.90;;;;;;5146072;27;20757;-45
2021/09/28 07:21:23;;;;;;;19.85;10.75;;;13.20;99.90;;;;;;5147052;27;20125;-46
2021/09/28 07:23:55;;;;;;;14.10;8.32;;;13.40;99.90;;;;;;5145478;27;20058;-45
2021/09/28 07:26:31;;;;;;;19.83;13.07;;;13.70;99.90;;;;;;5147413;27;20050;-46
2021/09/28 07:28:57;;;;;;;16.90;11.30;;;13.70;99.90;;;;;;5146183;27;20053;-46
2021/09/28 07:31:26;;;;;;;18.80;10.02;;;13.80;99.90;;;;;;5147976;27;20517;-50
2021/09/28 07:33:53;;;;;;;14.38;8.45;;;14.10;99.90;;;;;;5148418;27;20047;-47
2021/09/28 07:36:19;;;;;;;17.17;9.80;;;14.30;99.90;;;;;;5149039;27;20122;-53
2021/09/28 07:38:45;;;;;;;24.40;8.32;;;14.60;99.90;;;;;;5148269;27;20046;-47
2021/09/28 07:41:11;;;;;;;17.35;8.90;;;14.80;99.90;;;;;;5149352;27;20130;-47
2021/09/28 07:43:38;;;;;;;15.57;8.02;;;15.10;99.90;;;;;;5147689;27;20471;-48
2021/09/28 07:46:08;;;;;;;15.77;8.65;;;15.00;99.90;;;;;;5147917;27;20059;-52
2021/09/28 07:48:37;;;;;;;17.90;7.15;;;15.40;99.90;;;;;;5147029;27;20053;-48
2021/09/28 07:51:05;;;;;;;15.13;6.78;;;15.60;99.90;;;;;;5146942;27;20129;-45
2021/09/28 07:53:34;;;;;;;13.60;6.18;;;16.00;99.90;;;;;;5148872;27;20123;-42
2021/09/28 07:56:03;;;;;;;15.02;7.97;;;16.30;99.90;;;;;;5145025;27;20057;-46
2021/09/28 07:58:33;;;;;;;12.27;7.07;;;16.70;99.90;;;;;;5110783;27;20059;-46
2021/09/28 08:01:05;;;;;;;12.65;6.20;;;16.90;99.90;;;;;;5126765;27;20051;-42
2021/09/28 08:03:31;;;;;;;16.45;7.47;;;17.20;99.90;;;;;;5126211;27;20059;-48
2021/09/28 08:06:00;;;;;;;11.52;6.13;;;17.30;99.90;;;;;;5127443;27;20055;-47
2021/09/28 08:08:26;;;;;;;28.85;21.27;;;17.40;99.90;;;;;;5126500;27;20043;-46
2021/09/28 08:10:53;;;;;;;12.27;5.75;;;17.60;99.90;;;;;;5128029;27;20059;-50
2021/09/28 08:13:19;;;;;;;12.82;6.13;;;17.60;99.90;;;;;;5125817;27;20093;-52
2021/09/28 08:15:57;;;;;;;17.48;8.40;;;17.70;99.90;;;;;;5127065;27;20050;-49
2021/09/28 08:18:26;;;;;;;14.77;6.28;;;18.00;99.90;;;;;;5126356;27;20042;-50
2021/09/28 08:20:55;;;;;;;;;;;18.40;99.90;;;;;;5127355;27;20051;-51
2021/09/28 08:23:24;;;;;;;21.25;7.88;;;18.70;99.90;;;;;;5127196;27;19923;-52
2021/09/28 08:31:10;;;;;;;12.43;5.43;;;19.20;99.90;;;;;;5124884;27;20047;-55
2021/09/28 08:33:39;;;;;;;14.27;5.13;;;19.30;99.90;;;;;;5126853;27;20465;-53
2021/09/28 08:36:06;;;;;;;37.65;30.27;;;19.30;99.90;;;;;;5126148;27;20066;-56
2021/09/28 08:38:32;;;;;;;13.73;8.05;;;19.60;99.90;;;;;;5121797;28;20043;-51
2021/09/28 08:40:59;;;;;;;14.02;7.03;;;19.80;99.90;;;;;;5125659;28;20130;-53
2021/09/28 08:43:29;;;;;;;11.18;5.10;;;20.10;99.90;;;;;;5127440;27;20065;-50
2021/09/28 08:45:56;;;;;;;11.65;5.10;;;20.70;99.90;;;;;;5125717;28;20043;-50
2021/09/28 08:48:25;;;;;;;13.02;5.57;;;20.90;99.90;;;;;;5126628;27;20055;-51
2021/09/28 08:50:52;;;;;;;13.50;6.88;;;21.40;99.90;;;;;;5123755;28;20050;-56
2021/09/28 08:53:23;;;;;;;12.80;5.70;;;21.40;99.90;;;;;;5126100;28;20054;-47
2021/09/28 08:55:49;;;;;;;12.05;4.90;;;21.30;99.90;;;;;;5125591;28;20423;-51
2021/09/28 08:58:24;;;;;;;12.55;5.85;;;21.40;99.90;;;;;;5136024;27;20050;-54
2021/09/28 09:01:08;;;;;;;10.98;4.68;;;21.30;99.90;;;;;;5145583;27;20046;-50
2021/09/28 09:03:38;;;;;;;13.65;4.78;;;21.10;97.50;;;;;;5137562;27;20086;-54
2021/09/28 09:06:08;;;;;;;12.00;5.15;;;21.30;99.90;;;;;;5146196;27;20057;-53
2021/09/28 09:08:36;;;;;;;10.75;4.22;;;21.50;99.90;;;;;;5147633;27;20057;-52
2021/09/28 09:11:08;;;;;;;12.27;4.25;;;21.80;99.90;;;;;;5112534;27;20058;-50
2021/09/28 09:13:39;;;;;;;11.32;4.38;;;22.00;99.90;;;;;;5143925;27;20051;-50
2021/09/28 09:16:11;;;;;;;10.00;3.75;;;22.20;99.90;;;;;;5144970;27;20058;-50
2021/09/28 09:18:37;;;;;;;9.60;3.78;;;22.00;96.20;;;;;;5127667;27;20091;-51
2021/09/28 09:21:05;;;;;;;13.07;4.57;;;21.80;99.90;;;;;;5145733;27;20122;-49
2021/09/28 09:23:36;;;;;;;12.20;4.07;;;22.20;99.90;;;;;;5142621;27;20141;-48
2021/09/28 09:26:13;;;;;;;;;;;22.60;99.90;;;;;;5150462;27;20054;-51
2021/09/28 09:28:49;;;;;;;10.77;5.10;;;22.60;91.80;;;;;;5148523;27;19965;-52
2021/09/28 09:31:31;;;;;;;13.73;4.22;;;22.70;99.90;;;;;;5129618;27;20067;-52
2021/09/28 09:34:14;;;;;;;16.50;6.10;;;23.20;95.10;;;;;;5150322;27;20046;-52
2021/09/28 09:36:40;;;;;;;13.13;7.22;;;23.60;88.80;;;;;;5151051;27;20051;-50
2021/09/28 09:39:10;;;;;;;10.50;5.78;;;23.70;90.40;;;;;;5144629;27;20055;-48
2021/09/28 09:41:40;;;;;;;12.23;4.93;;;23.70;84.10;;;;;;5149604;27;20049;-54
2021/09/28 09:44:14;;;;;;;14.23;6.32;;;23.50;81.20;;;;;;5131334;27;20047;-53
2021/09/28 09:46:45;;;;;;;11.45;4.82;;;23.60;86.00;;;;;;5150055;27;20047;-54
2021/09/28 09:49:19;;;;;;;;;;;23.50;77.60;;;;;;5151616;27;20050;-55
2021/09/28 09:51:52;;;;;;;8.93;3.20;;;22.90;73.30;;;;;;5149675;27;20005;-55
2021/09/28 09:54:35;;;;;;;14.43;4.47;;;23.30;87.70;;;;;;5151085;27;20058;-56
2021/09/28 09:57:07;;;;;;;10.18;3.22;;;23.30;76.10;;;;;;5149081;27;20174;-56
2021/09/28 09:59:34;;;;;;;16.52;4.18;;;23.40;78.10;;;;;;5151289;27;20050;-58
2021/09/28 10:02:09;;;;;;;15.25;4.28;;;23.70;81.10;;;;;;5149543;27;20051;-57
2021/09/28 10:04:36;;;;;;;14.63;3.83;;;23.90;75.60;;;;;;5148526;27;20146;-57
2021/09/28 10:07:04;;;;;;;11.13;3.35;;;24.30;78.70;;;;;;5149360;27;20506;-54
2021/09/28 10:09:35;;;;;;;11.30;3.50;;;24.50;73.20;;;;;;5149905;27;20059;-54
2021/09/28 10:12:12;;;;;;;;;;;24.90;72.50;;;;;;5149812;27;20061;-54
2021/09/28 10:14:45;;;;;;;11.75;2.83;;;24.90;67.40;;;;;;5130038;27;19930;-52
2021/09/28 10:17:20;;;;;;;10.68;3.30;;;25.70;69.00;;;;;;5148166;27;20162;-53
2021/09/28 10:19:50;;;;;;;11.20;2.92;;;25.10;65.10;;;;;;5149732;27;20085;-54
2021/09/28 10:22:35;;;;;;;9.98;2.58;;;24.50;64.20;;;;;;5150787;27;20054;-54
2021/09/28 10:25:22;;;;;;;9.90;2.60;;;24.20;65.60;;;;;;5144998;27;20078;-55
2021/09/28 10:28:04;;;;;;;10.07;3.15;;;23.70;64.90;;;;;;5148098;27;20046;-55
2021/09/28 10:30:33;;;;;;;11.10;2.42;;;23.00;65.90;;;;;;5150805;27;20046;-55
2021/09/28 10:33:21;;;;;;;10.45;2.58;;;23.20;69.40;;;;;;5148818;27;20049;-54
2021/09/28 10:35:58;;;;;;;11.02;2.83;;;23.10;71.70;;;;;;5146645;27;20107;-54
2021/09/28 10:38:44;;;;;;;7.75;2.72;;;23.20;66.60;;;;;;5150077;27;20066;-54
2021/09/28 10:41:29;;;;;;;12.80;2.97;;;23.90;65.90;;;;;;5150639;27;20053;-55
2021/09/28 10:44:14;;;;;;;14.35;4.10;;;23.80;64.10;;;;;;5125911;27;20046;-56
2021/09/28 10:46:40;;;;;;;12.52;4.97;;;24.10;62.60;;;;;;5148726;27;20126;-56
2021/09/28 10:49:29;;;;;;;17.48;7.25;;;24.30;65.60;;;;;;5145154;27;20106;-55
2021/09/28 10:52:20;;;;;;;14.27;6.82;;;24.50;57.40;;;;;;5145785;27;20062;-53
2021/09/28 10:55:11;;;;;;;16.33;8.45;;;25.00;61.90;;;;;;5150331;27;20047;-55
2021/09/28 10:57:58;;;;;;;10.40;3.33;;;25.10;58.10;;;;;;5129305;27;20065;-56
2021/09/28 11:00:27;;;;;;;14.52;6.07;;;24.70;58.60;;;;;;5147183;27;20058;-56
2021/09/28 11:02:58;;;;;;;9.93;2.72;;;24.60;62.10;;;;;;5149911;27;20043;-53
2021/09/28 11:05:38;;;;;;;12.98;3.05;;;24.60;59.50;;;;;;5150478;27;20050;-53
2021/09/28 11:08:06;;;;;;;;;;;24.30;59.00;;;;;;5150252;27;20560;-53
2021/09/28 11:10:34;;;;;;;11.48;2.58;;;24.20;59.30;;;;;;5147332;27;20310;-50
2021/09/28 11:13:09;;;;;;;12.50;3.75;;;24.80;60.80;;;;;;5148520;27;20086;-58
2021/09/28 11:15:35;;;;;;;10.63;2.40;;;25.30;57.30;;;;;;5148540;27;20133;-56
2021/09/28 11:18:14;;;;;;;11.38;3.38;;;25.70;58.30;;;;;;5147162;27;20047;-56
2021/09/28 11:20:41;;;;;;;13.23;2.78;;;26.20;54.60;;;;;;5147740;27;20054;-58
2021/09/28 11:23:12;;;;;;;9.50;2.83;;;26.20;55.90;;;;;;5131291;27;20051;-55
2021/09/28 11:25:52;;;;;;;9.95;3.75;;;26.30;54.90;;;;;;5149938;27;20116;-52
2021/09/28 11:28:21;;;;;;;16.95;10.05;;;25.50;55.70;;;;;;5149288;27;20058;-56
2021/09/28 11:30:56;;;;;;;12.45;4.18;;;24.80;57.20;;;;;;5148830;27;20106;-58
2021/09/28 11:33:26;;;;;;;9.50;4.00;;;23.80;59.10;;;;;;5149122;27;20043;-58
2021/09/28 11:35:59;;;;;;;11.02;3.65;;;23.30;59.60;;;;;;5147678;27;20070;-59
2021/09/28 11:38:33;;;;;;;19.20;6.13;;;23.00;60.80;;;;;;5143632;27;20099;-58
2021/09/28 11:41:08;;;;;;;10.20;2.50;;;23.20;61.70;;;;;;5128507;27;20616;-60
2021/09/28 11:43:35;;;;;;;12.60;3.45;;;23.80;62.20;;;;;;5147716;27;20055;-54
2021/09/28 11:46:16;;;;;;;14.35;2.95;;;24.60;60.20;;;;;;5148837;27;20050;-55
2021/09/28 11:48:57;;;;;;;11.93;3.38;;;25.30;56.50;;;;;;5144841;27;20395;-57
2021/09/28 11:51:29;;;;;;;13.30;3.35;;;25.40;55.50;;;;;;5146093;27;20078;-56
2021/09/28 11:54:09;;;;;;;11.25;3.67;;;24.80;55.50;;;;;;5149308;27;20055;-56
2021/09/28 11:56:43;;;;;;;8.93;2.22;;;23.70;55.40;;;;;;5129333;27;20135;-57
2021/09/28 11:59:18;;;;;;;10.68;2.83;;;23.10;59.50;;;;;;5145699;27;20137;-56
2021/09/28 12:01:53;;;;;;;14.90;7.93;;;23.50;58.20;;;;;;5148415;27;20051;-57
2021/09/28 12:09:34;;;;;;;13.95;5.85;;;23.40;60.00;;;;;;5144706;27;20083;-57
2021/09/28 12:12:09;;;;;;;11.90;4.25;;;23.40;60.10;;;;;;5145991;27;20046;-57
2021/09/28 12:14:48;;;;;;;10.70;2.17;;;24.00;59.20;;;;;;5147482;27;20042;-57
2021/09/28 12:17:22;;;;;;;9.60;2.75;;;24.50;56.80;;;;;;5145794;27;20074;-58
2021/09/28 12:19:52;;;;;;;24.25;5.78;;;25.10;56.00;;;;;;5145867;27;20045;-59
2021/09/28 12:22:50;;;;;;;8.77;2.75;;;24.70;53.60;;;;;;5144710;27;20053;-55
2021/09/28 12:25:33;;;;;;;25.77;6.50;;;25.00;55.00;;;;;;5063657;28;20048;-60
2021/09/28 12:28:00;;;;;;;17.38;3.92;;;25.50;52.50;;;;;;5061373;28;20067;-57
2021/09/28 12:30:49;;;;;;;6.25;1.52;;;26.00;54.00;;;;;;5062996;28;20063;-58
2021/09/28 12:33:15;;;;;;;7.50;2.10;;;26.30;50.60;;;;;;5062768;28;20512;-55
2021/09/28 12:35:58;;;;;;;8.52;2.03;;;25.50;53.00;;;;;;5061601;28;20059;-54
2021/09/28 12:38:25;;;;;;;6.18;1.65;;;26.20;51.30;;;;;;5062803;28;20195;-58
2021/09/28 12:41:02;;;;;;;9.23;2.45;;;25.80;53.10;;;;;;5060573;28;20051;-52
2021/09/28 12:43:37;;;;;;;8.73;2.10;;;25.20;54.30;;;;;;5062105;28;20376;-54
2021/09/28 12:46:08;;;;;;;11.00;2.88;;;24.40;54.70;;;;;;5059631;28;20044;-53
2021/09/28 12:48:41;;;;;;;8.23;2.00;;;24.20;55.00;;;;;;5062977;28;20685;-49
2021/09/28 12:51:11;;;;;;;18.88;13.23;;;24.20;55.40;;;;;;5059934;28;20563;-49
2021/09/28 12:53:38;;;;;;;10.70;5.78;;;25.10;52.90;;;;;;5063340;28;20048;-50
2021/09/28 12:56:07;;;;;;;13.25;6.95;;;25.90;52.70;;;;;;5063312;28;20044;-51
2021/09/28 12:58:35;;;;;;;8.88;2.85;;;25.40;51.30;;;;;;5060575;28;20060;-50
2021/09/28 13:01:04;;;;;;;13.32;7.03;;;24.70;53.30;;;;;;5064460;28;20142;-50
2021/09/28 13:03:34;;;;;;;11.60;5.38;;;25.00;53.60;;;;;;5150082;27;20053;-53
2021/09/28 13:06:03;;;;;;;61.15;54.88;;;25.90;52.60;;;;;;5132649;27;20053;-53
2021/09/28 13:08:30;;;;;;;13.40;7.10;;;25.70;52.00;;;;;;5151338;27;20495;-48
2021/09/28 13:11:02;;;;;;;12.65;7.38;;;24.80;52.70;;;;;;5149090;27;20512;-47